Terminal Aerodrome Forecast
Issued by NWS

Home | Current Version | Previous Version | Text Only | Print | Product List | Glossary On
Versions: 1 2 3 4 5 6 7 8 9 10 11 12 13 14 15 16 17 18 19 20 21 22 23 24
652
FTUS42 KTBW 262340 AAA
TAFLAL
TAF AMD
KLAL 262340Z 2700/2724 07009KT P6SM SKC
     FM271400 11009KT P6SM FEW150 SCT250
     FM272100 13009KT P6SM BKN050
     FM272300 12006KT P6SM SCT050
      AMD NOT SKED 2702/2711=

USA.gov is the U.S. government's official web portal to all federal, state and local government web resources and services.